createdAt,value
2023-08-11T00:01:26.177Z,73.35
2023-08-11T00:03:54.232Z,73.34
2023-08-11T00:06:21.949Z,73.27
2023-08-11T00:08:49.730Z,73.34
2023-08-11T00:11:17.618Z,73.32
2023-08-11T00:13:45.458Z,73.30
2023-08-11T00:16:13.846Z,73.42
2023-08-11T00:18:41.905Z,73.55
2023-08-11T00:21:10.077Z,73.58
2023-08-11T00:23:40.873Z,73.65
2023-08-11T00:26:08.855Z,73.80
2023-08-11T00:28:37.178Z,73.76
2023-08-11T00:31:06.773Z,73.77
2023-08-11T00:33:35.677Z,73.86
2023-08-11T00:36:04.534Z,73.72
2023-08-11T00:38:39.594Z,73.74
2023-08-11T00:41:08.596Z,73.90
2023-08-11T00:43:36.567Z,74.05
2023-08-11T00:46:14.611Z,73.99
2023-08-11T00:48:44.173Z,73.94
2023-08-11T00:51:19.029Z,73.76
2023-08-11T00:53:48.606Z,73.39
2023-08-11T00:56:17.859Z,73.21
2023-08-11T00:58:47.000Z,73.28
2023-08-11T01:01:15.219Z,73.38
2023-08-11T01:03:46.416Z,73.42
2023-08-11T01:06:39.332Z,73.50
2023-08-11T01:09:20.281Z,73.44
2023-08-11T01:12:04.082Z,73.21
2023-08-11T01:15:09.492Z,73.11
2023-08-11T01:17:40.835Z,73.36
2023-08-11T01:20:17.584Z,73.50
2023-08-11T01:22:48.449Z,73.75
2023-08-11T01:25:16.674Z,73.75
2023-08-11T01:27:54.265Z,73.74
2023-08-11T01:30:22.471Z,73.39
2023-08-11T01:32:53.085Z,73.35
2023-08-11T01:35:34.274Z,73.55
2023-08-11T01:38:10.278Z,73.61
2023-08-11T01:40:39.427Z,73.61
2023-08-11T01:43:11.453Z,73.70
2023-08-11T01:45:40.268Z,73.79
2023-08-11T01:48:11.640Z,73.75
2023-08-11T01:50:40.319Z,73.50
2023-08-11T01:53:09.134Z,73.53
2023-08-11T01:55:37.567Z,73.56
2023-08-11T01:58:06.401Z,73.64
2023-08-11T02:00:34.578Z,73.75
2023-08-11T02:03:04.236Z,73.74
2023-08-11T02:05:32.575Z,73.75
2023-08-11T02:08:01.403Z,73.65
2023-08-11T02:10:31.298Z,73.64
2023-08-11T02:12:59.563Z,73.57
2023-08-11T02:15:27.482Z,73.59
2023-08-11T02:17:55.315Z,73.70
2023-08-11T02:20:24.559Z,73.59
2023-08-11T02:22:54.310Z,73.64
2023-08-11T02:25:27.166Z,73.57
2023-08-11T02:27:55.630Z,73.54
2023-08-11T02:30:23.784Z,73.54
2023-08-11T02:32:51.957Z,73.54
2023-08-11T02:35:19.942Z,73.53
2023-08-11T02:37:50.236Z,73.46
2023-08-11T02:40:21.456Z,73.53
2023-08-11T02:43:00.204Z,73.71
2023-08-11T02:45:28.187Z,73.78
2023-08-11T02:47:57.558Z,74.00
2023-08-11T02:50:25.564Z,74.15
2023-08-11T02:52:53.463Z,73.97
2023-08-11T02:55:21.513Z,73.79
2023-08-11T02:57:49.326Z,73.71
2023-08-11T03:00:17.415Z,73.79
2023-08-11T03:02:47.521Z,73.87
2023-08-11T03:05:17.473Z,73.85
2023-08-11T03:07:47.977Z,73.93
2023-08-11T03:10:15.810Z,73.56
2023-08-11T03:12:45.234Z,72.86
2023-08-11T03:15:13.263Z,72.05
2023-08-11T03:17:41.498Z,71.08
2023-08-11T03:20:14.958Z,70.47
2023-08-11T03:22:45.418Z,68.85
2023-08-11T03:25:16.238Z,67.81
2023-08-11T03:27:44.908Z,66.95
2023-08-11T03:30:24.112Z,67.10
2023-08-11T03:32:54.591Z,66.93
2023-08-11T03:35:35.032Z,66.53
2023-08-11T03:38:03.985Z,66.12
2023-08-11T03:40:34.212Z,66.79
2023-08-11T03:43:04.498Z,65.33
2023-08-11T03:45:34.145Z,65.58
2023-08-11T03:48:03.139Z,66.06
2023-08-11T03:50:31.125Z,65.64
2023-08-11T03:52:58.969Z,66.19
2023-08-11T03:55:26.823Z,66.59
2023-08-11T03:57:54.740Z,67.18
2023-08-11T04:00:26.635Z,67.13
2023-08-11T04:03:05.721Z,67.79
2023-08-11T04:05:34.114Z,68.14
2023-08-11T04:08:01.825Z,68.02
2023-08-11T04:10:29.596Z,68.46
2023-08-11T04:12:57.286Z,68.46
2023-08-11T04:15:26.010Z,68.88
2023-08-11T04:17:54.098Z,68.93
2023-08-11T04:20:23.605Z,69.38
2023-08-11T04:22:52.300Z,69.44
2023-08-11T04:25:20.182Z,69.87
2023-08-11T04:27:49.419Z,70.32
2023-08-11T04:30:17.585Z,70.70
2023-08-11T04:32:47.968Z,70.95
2023-08-11T04:35:16.816Z,71.40
2023-08-11T04:37:46.716Z,71.82
2023-08-11T04:40:18.198Z,71.96
2023-08-11T04:42:48.280Z,71.87
2023-08-11T04:45:20.145Z,71.64
2023-08-11T04:47:48.578Z,71.67
2023-08-11T04:50:21.214Z,71.54
2023-08-11T04:52:53.787Z,71.55
2023-08-11T04:55:21.641Z,71.94
2023-08-11T04:57:49.541Z,72.03
2023-08-11T05:00:18.573Z,72.13
2023-08-11T05:02:47.358Z,72.29
2023-08-11T05:05:15.541Z,72.55
2023-08-11T05:07:44.127Z,72.85
2023-08-11T05:10:12.057Z,72.90
2023-08-11T05:12:40.477Z,73.07
2023-08-11T05:15:08.944Z,73.11
2023-08-11T05:17:38.071Z,73.01
2023-08-11T05:20:08.643Z,73.27
2023-08-11T05:22:37.561Z,73.19
2023-08-11T05:25:06.953Z,73.29
2023-08-11T05:27:34.954Z,73.33
2023-08-11T05:30:03.997Z,73.55
2023-08-11T05:32:33.033Z,73.29
2023-08-11T05:35:00.980Z,73.28
2023-08-11T05:37:29.499Z,72.38
2023-08-11T05:39:57.525Z,72.74
2023-08-11T05:42:25.410Z,72.52
2023-08-11T05:44:53.165Z,72.54
2023-08-11T05:47:20.996Z,72.06
2023-08-11T05:49:48.923Z,71.40
2023-08-11T05:52:16.952Z,70.89
2023-08-11T05:54:44.800Z,71.61
2023-08-11T05:57:13.380Z,71.11
2023-08-11T05:59:41.261Z,70.55
2023-08-11T06:02:09.333Z,70.26
2023-08-11T06:04:38.443Z,71.24
2023-08-11T06:07:07.263Z,70.41
2023-08-11T06:09:35.465Z,69.50
2023-08-11T06:12:04.451Z,70.26
2023-08-11T06:14:32.714Z,70.67
2023-08-11T06:17:00.610Z,68.66
2023-08-11T06:19:28.403Z,69.59
2023-08-11T06:21:57.095Z,68.07
2023-08-11T06:24:25.503Z,66.46
2023-08-11T06:26:53.272Z,65.94
2023-08-11T06:29:21.766Z,66.65
2023-08-11T06:31:50.336Z,67.04
2023-08-11T06:34:18.658Z,64.93
2023-08-11T06:36:50.501Z,63.06
2023-08-11T06:39:18.565Z,61.41
2023-08-11T06:41:46.358Z,62.03
2023-08-11T06:44:14.305Z,61.90
2023-08-11T06:46:42.271Z,61.64
2023-08-11T06:49:10.122Z,60.29
2023-08-11T06:51:38.316Z,58.87
2023-08-11T06:54:06.386Z,58.39
2023-08-11T06:56:34.513Z,58.92
2023-08-11T06:59:02.719Z,59.48
2023-08-11T07:01:30.660Z,57.89
2023-08-11T07:04:00.924Z,56.90
2023-08-11T07:06:30.287Z,55.44
2023-08-11T07:08:58.096Z,57.70
2023-08-11T07:11:25.877Z,57.17
2023-08-11T07:13:53.674Z,57.41
2023-08-11T07:16:21.620Z,57.72
2023-08-11T07:18:49.483Z,55.91
2023-08-11T07:21:17.198Z,55.45
2023-08-11T07:23:45.008Z,57.22
2023-08-11T07:26:12.948Z,54.17
2023-08-11T07:28:41.452Z,53.14
2023-08-11T07:31:09.323Z,53.05
2023-08-11T07:33:37.257Z,54.49
2023-08-11T07:36:05.350Z,54.81
2023-08-11T07:38:33.248Z,55.81
2023-08-11T07:41:01.080Z,53.80
2023-08-11T07:43:28.921Z,52.20
2023-08-11T07:45:56.751Z,54.22
2023-08-11T07:48:24.638Z,52.21
2023-08-11T07:50:52.518Z,51.98
2023-08-11T07:53:20.312Z,53.34
2023-08-11T07:55:48.049Z,53.28
2023-08-11T07:58:16.264Z,51.32
2023-08-11T08:00:44.202Z,50.91
2023-08-11T08:03:12.021Z,51.72
2023-08-11T08:05:39.882Z,50.28
2023-08-11T08:08:07.659Z,50.20
2023-08-11T08:10:35.516Z,47.24
2023-08-11T08:13:03.985Z,51.29
2023-08-11T08:15:32.124Z,49.72
2023-08-11T08:18:00.032Z,49.62
2023-08-11T08:20:27.751Z,48.60
2023-08-11T08:22:55.640Z,46.82
2023-08-11T08:25:23.573Z,46.88
2023-08-11T08:28:00.888Z,50.51
2023-08-11T08:30:34.692Z,46.14
2023-08-11T08:33:02.974Z,48.57
2023-08-11T08:35:30.855Z,47.04
2023-08-11T08:37:58.851Z,47.11
2023-08-11T08:40:28.604Z,48.29
2023-08-11T08:42:57.229Z,46.22
2023-08-11T08:45:27.224Z,45.99
2023-08-11T08:47:59.383Z,48.49
2023-08-11T08:50:28.140Z,47.76
2023-08-11T08:52:56.125Z,46.20
2023-08-11T08:55:24.039Z,46.09
2023-08-11T08:57:52.992Z,44.53
2023-08-11T09:00:21.278Z,45.67
2023-08-11T09:02:51.275Z,46.77
2023-08-11T09:05:19.764Z,46.98
2023-08-11T09:07:47.535Z,44.84
2023-08-11T09:10:17.605Z,44.88
2023-08-11T09:12:46.285Z,46.01
2023-08-11T09:15:14.559Z,45.15
2023-08-11T09:17:42.796Z,44.42
2023-08-11T09:20:18.707Z,45.15
2023-08-11T09:22:46.869Z,44.28
2023-08-11T09:25:16.141Z,43.15
2023-08-11T09:27:43.902Z,44.40
2023-08-11T09:30:15.203Z,43.51
2023-08-11T09:32:47.542Z,44.16
2023-08-11T09:35:15.675Z,42.26
2023-08-11T09:37:45.254Z,42.59
2023-08-11T09:40:13.197Z,42.14
2023-08-11T09:42:43.272Z,41.04
2023-08-11T09:45:11.249Z,40.78
2023-08-11T09:47:39.283Z,40.95
2023-08-11T09:50:09.342Z,39.64
2023-08-11T09:52:40.325Z,41.11
2023-08-11T09:55:12.311Z,38.75
2023-08-11T09:57:43.117Z,37.84
2023-08-11T10:00:14.577Z,40.81
2023-08-11T10:02:51.328Z,39.27
2023-08-11T10:05:19.580Z,39.63
2023-08-11T10:07:50.217Z,40.16
2023-08-11T10:10:23.822Z,40.53
2023-08-11T10:13:08.740Z,37.02
2023-08-11T10:15:38.067Z,38.72
2023-08-11T10:18:09.771Z,36.37
2023-08-11T10:20:37.882Z,35.89
2023-08-11T10:23:06.238Z,36.67
2023-08-11T10:25:34.911Z,37.57
2023-08-11T10:28:08.359Z,40.55
2023-08-11T10:30:37.281Z,38.78
2023-08-11T10:33:10.993Z,39.86
2023-08-11T10:35:48.093Z,35.92
2023-08-11T10:38:26.165Z,37.90
2023-08-11T10:41:02.869Z,43.10
2023-08-11T10:43:43.393Z,37.06
2023-08-11T10:46:31.554Z,36.66
2023-08-11T10:49:00.819Z,36.42
2023-08-11T10:51:34.373Z,40.19
2023-08-11T10:54:04.049Z,36.47
2023-08-11T10:56:37.957Z,35.48
2023-08-11T10:59:20.560Z,40.26
2023-08-11T11:01:51.171Z,40.11
2023-08-11T11:04:22.041Z,41.22
2023-08-11T11:06:54.972Z,38.24
2023-08-11T11:09:23.219Z,36.52
2023-08-11T11:11:52.915Z,33.62
2023-08-11T11:14:22.587Z,36.15
2023-08-11T11:16:50.613Z,36.25
2023-08-11T11:19:18.585Z,36.48
2023-08-11T11:21:48.904Z,36.48
2023-08-11T11:24:16.688Z,35.07
2023-08-11T11:26:44.877Z,34.29
2023-08-11T11:29:13.167Z,38.20
2023-08-11T11:31:42.008Z,32.80
2023-08-11T11:34:10.340Z,38.25
2023-08-11T11:36:39.482Z,32.66
2023-08-11T11:39:09.406Z,34.89
2023-08-11T11:41:37.482Z,34.17
2023-08-11T11:44:05.796Z,34.73
2023-08-11T11:46:34.888Z,33.93
2023-08-11T11:49:15.719Z,35.14
2023-08-11T11:51:52.366Z,34.53
2023-08-11T11:54:20.222Z,32.92
2023-08-11T11:57:02.192Z,36.97
2023-08-11T11:59:32.829Z,36.24
2023-08-11T12:02:05.206Z,36.55
2023-08-11T12:04:34.116Z,35.65
2023-08-11T12:07:03.125Z,37.84
2023-08-11T12:09:31.102Z,37.46
2023-08-11T12:11:59.393Z,33.98
2023-08-11T12:14:28.553Z,37.29
2023-08-11T12:16:58.607Z,34.35
2023-08-11T12:19:26.951Z,33.77
2023-08-11T12:21:54.841Z,35.30
2023-08-11T12:24:24.136Z,38.21
2023-08-11T12:26:52.037Z,36.12
2023-08-11T12:29:19.830Z,38.73
2023-08-11T12:31:47.821Z,36.62
2023-08-11T12:34:15.676Z,37.37
2023-08-11T12:36:43.455Z,38.84
2023-08-11T12:39:11.266Z,38.65
2023-08-11T12:41:40.209Z,37.88
2023-08-11T12:44:08.251Z,40.44
2023-08-11T12:46:37.565Z,37.64
2023-08-11T12:49:05.945Z,36.35
2023-08-11T12:51:34.250Z,37.93
2023-08-11T12:54:02.340Z,37.96
2023-08-11T12:56:30.217Z,37.55
2023-08-11T12:58:58.085Z,40.47
2023-08-11T13:01:26.919Z,36.68
2023-08-11T13:03:56.362Z,37.77
2023-08-11T13:06:24.241Z,38.47
2023-08-11T13:08:52.032Z,39.37
2023-08-11T13:11:20.543Z,37.54
2023-08-11T13:13:48.834Z,40.03
2023-08-11T13:16:17.533Z,38.09
2023-08-11T13:18:45.433Z,35.89
2023-08-11T13:21:13.267Z,34.66
2023-08-11T13:23:40.997Z,37.01
2023-08-11T13:26:08.927Z,40.49
2023-08-11T13:28:36.956Z,37.12
2023-08-11T13:31:05.694Z,36.86
2023-08-11T13:33:34.190Z,39.08
2023-08-11T13:36:03.439Z,38.65
2023-08-11T13:38:32.533Z,38.00
2023-08-11T13:41:01.410Z,37.63
2023-08-11T13:43:29.255Z,41.02
2023-08-11T13:45:57.209Z,39.67
2023-08-11T13:48:25.419Z,39.15
2023-08-11T13:50:54.339Z,41.83
2023-08-11T13:53:23.322Z,43.14
2023-08-11T13:55:51.230Z,38.93
2023-08-11T13:58:18.981Z,40.36
2023-08-11T14:00:48.577Z,41.32
2023-08-11T14:03:16.445Z,38.48
2023-08-11T14:05:44.166Z,39.23
2023-08-11T14:08:13.513Z,39.52
2023-08-11T14:10:41.372Z,37.48
2023-08-11T14:13:11.615Z,39.51
2023-08-11T14:15:40.089Z,36.68
2023-08-11T14:18:08.514Z,35.62
2023-08-11T14:20:36.570Z,36.80
2023-08-11T14:23:05.145Z,35.43
2023-08-11T14:25:34.087Z,34.75
2023-08-11T14:28:04.086Z,33.24
2023-08-11T14:30:32.024Z,33.90
2023-08-11T14:33:00.836Z,31.61
2023-08-11T14:35:28.759Z,35.64
2023-08-11T14:37:58.286Z,33.37
2023-08-11T14:40:26.990Z,36.68
2023-08-11T14:42:55.758Z,34.25
2023-08-11T14:45:23.660Z,34.43
2023-08-11T14:47:51.594Z,34.43
2023-08-11T14:50:19.803Z,34.88
2023-08-11T14:52:47.589Z,35.65
2023-08-11T14:55:16.564Z,32.78
2023-08-11T14:57:45.165Z,34.50
2023-08-11T15:00:14.798Z,35.55
2023-08-11T15:02:42.840Z,33.32
2023-08-11T15:05:10.885Z,33.73
2023-08-11T15:07:38.856Z,32.31
2023-08-11T15:10:07.389Z,35.41
2023-08-11T15:12:35.245Z,33.95
2023-08-11T15:15:03.121Z,34.63
2023-08-11T15:17:31.008Z,34.44
2023-08-11T15:19:58.859Z,34.29
2023-08-11T15:22:26.712Z,36.01
2023-08-11T15:24:54.738Z,36.39
2023-08-11T15:27:22.452Z,35.97
2023-08-11T15:29:50.199Z,37.79
2023-08-11T15:32:18.045Z,40.81
2023-08-11T15:34:45.819Z,39.70
2023-08-11T15:37:13.586Z,39.65
2023-08-11T15:39:45.258Z,41.68
2023-08-11T15:42:13.080Z,41.36
2023-08-11T15:44:40.987Z,42.62
2023-08-11T15:47:10.303Z,42.97
2023-08-11T15:49:38.145Z,43.58
2023-08-11T15:52:06.038Z,43.03
2023-08-11T15:54:33.941Z,43.73
2023-08-11T15:57:01.844Z,42.78
2023-08-11T15:59:29.810Z,43.38
2023-08-11T16:02:09.438Z,42.38
2023-08-11T16:04:38.910Z,44.94
2023-08-11T16:07:06.728Z,44.70
2023-08-11T16:09:34.753Z,43.98
2023-08-11T16:12:02.894Z,45.83
2023-08-11T16:14:30.788Z,45.99
2023-08-11T16:16:59.048Z,43.73
2023-08-11T16:19:26.840Z,46.61
2023-08-11T16:21:54.568Z,46.64
2023-08-11T16:24:22.571Z,46.83
2023-08-11T16:26:50.358Z,45.00
2023-08-11T16:29:18.131Z,45.18
2023-08-11T16:31:46.031Z,46.21
2023-08-11T16:34:14.311Z,44.74
2023-08-11T16:36:42.199Z,45.42
2023-08-11T16:39:10.244Z,45.12
2023-08-11T16:41:38.049Z,46.66
2023-08-11T16:44:06.009Z,47.09
2023-08-11T16:46:34.241Z,48.53
2023-08-11T16:49:02.817Z,46.50
2023-08-11T16:51:30.836Z,50.52
2023-08-11T16:53:58.810Z,48.04
2023-08-11T16:56:27.828Z,48.33
2023-08-11T16:58:56.271Z,49.26
2023-08-11T17:01:24.262Z,50.41
2023-08-11T17:03:52.403Z,49.72
2023-08-11T17:06:21.356Z,50.93
2023-08-11T17:08:51.411Z,51.74
2023-08-11T17:11:19.530Z,51.77
2023-08-11T17:13:50.298Z,53.55
2023-08-11T17:16:19.510Z,54.47
2023-08-11T17:18:51.017Z,53.36
2023-08-11T17:21:23.249Z,52.20
2023-08-11T17:23:56.437Z,52.56
2023-08-11T17:26:24.837Z,53.79
2023-08-11T17:28:55.439Z,51.36
2023-08-11T17:31:24.780Z,52.39
2023-08-11T17:33:53.506Z,50.53
2023-08-11T17:36:26.881Z,51.93
2023-08-11T17:38:55.537Z,53.56
2023-08-11T17:41:25.763Z,51.23
2023-08-11T17:43:53.882Z,53.86
2023-08-11T17:46:22.987Z,54.74
2023-08-11T17:48:54.472Z,55.21
2023-08-11T17:51:24.010Z,55.45
2023-08-11T17:54:08.400Z,55.36
2023-08-11T17:56:38.722Z,55.15
2023-08-11T17:59:07.446Z,55.68
2023-08-11T18:01:35.685Z,55.24
2023-08-11T18:04:07.951Z,55.05
2023-08-11T18:06:37.713Z,57.01
2023-08-11T18:09:07.354Z,56.73
2023-08-11T18:11:36.922Z,55.80
2023-08-11T18:14:05.909Z,56.56
2023-08-11T18:16:34.038Z,55.40
2023-08-11T18:19:01.945Z,56.78
2023-08-11T18:21:30.486Z,57.10
2023-08-11T18:23:59.007Z,58.09
2023-08-11T18:26:30.208Z,57.36
2023-08-11T18:28:59.134Z,56.34
2023-08-11T18:31:28.282Z,56.28
2023-08-11T18:33:56.252Z,56.68
2023-08-11T18:36:24.361Z,57.29
2023-08-11T18:38:52.572Z,58.03
2023-08-11T18:41:21.485Z,57.73
2023-08-11T18:43:49.387Z,58.68
2023-08-11T18:46:17.208Z,58.68
2023-08-11T18:48:45.921Z,58.99
2023-08-11T18:51:13.843Z,59.59
2023-08-11T18:53:41.813Z,59.84
2023-08-11T18:56:09.789Z,60.48
2023-08-11T18:58:37.989Z,61.42
2023-08-11T19:01:07.109Z,61.15
2023-08-11T19:03:36.157Z,60.38
2023-08-11T19:06:04.521Z,61.70
2023-08-11T19:08:33.028Z,60.83
2023-08-11T19:11:00.796Z,61.94
2023-08-11T19:13:28.686Z,62.46
2023-08-11T19:15:57.199Z,63.42
2023-08-11T19:18:25.234Z,63.63
2023-08-11T19:20:53.186Z,64.05
2023-08-11T19:23:21.178Z,64.60
2023-08-11T19:25:51.482Z,65.46
2023-08-11T19:28:19.814Z,65.75
2023-08-11T19:30:47.539Z,66.11
2023-08-11T19:33:15.632Z,66.44
2023-08-11T19:35:44.230Z,66.88
2023-08-11T19:38:12.858Z,66.91
2023-08-11T19:40:45.225Z,67.07
2023-08-11T19:43:13.112Z,67.37
2023-08-11T19:45:50.297Z,67.52
2023-08-11T19:48:19.344Z,67.93
2023-08-11T19:50:48.985Z,68.12
2023-08-11T19:53:17.247Z,68.28
2023-08-11T19:55:46.009Z,68.43
2023-08-11T19:58:14.401Z,68.63
2023-08-11T20:00:42.655Z,68.78
2023-08-11T20:03:11.614Z,69.46
2023-08-11T20:05:47.558Z,69.92
2023-08-11T20:08:16.375Z,70.32
2023-08-11T20:10:49.333Z,70.63
2023-08-11T20:13:19.733Z,70.75
2023-08-11T20:15:51.306Z,71.11
2023-08-11T20:18:19.348Z,71.53
2023-08-11T20:20:47.541Z,72.00
2023-08-11T20:23:15.784Z,72.73
2023-08-11T20:25:43.906Z,73.08
2023-08-11T20:28:12.707Z,73.29
2023-08-11T20:30:44.498Z,73.62
2023-08-11T20:33:12.742Z,74.22
2023-08-11T20:35:44.351Z,75.02
2023-08-11T20:38:12.714Z,75.78
2023-08-11T20:40:40.577Z,76.35
2023-08-11T20:43:08.450Z,77.06
2023-08-11T20:45:36.589Z,77.59
2023-08-11T20:48:05.078Z,77.97
2023-08-11T20:50:37.264Z,78.47
2023-08-11T20:53:05.841Z,79.01
2023-08-11T20:55:33.744Z,79.67
2023-08-11T20:58:01.728Z,79.96
2023-08-11T21:00:30.975Z,80.77
2023-08-11T21:02:59.753Z,81.38
2023-08-11T21:05:27.998Z,82.36
2023-08-11T21:07:55.742Z,83.00
2023-08-11T21:10:23.800Z,83.68
2023-08-11T21:12:52.270Z,83.99
2023-08-11T21:15:20.262Z,84.33
2023-08-11T21:17:48.071Z,84.69
2023-08-11T21:20:16.262Z,84.92
2023-08-11T21:22:44.197Z,85.08
2023-08-11T21:25:11.899Z,85.13
2023-08-11T21:27:39.780Z,84.86
2023-08-11T21:30:08.278Z,85.10
2023-08-11T21:32:36.197Z,85.16
2023-08-11T21:35:04.474Z,85.20
2023-08-11T21:37:32.654Z,85.37
2023-08-11T21:40:00.660Z,85.38
2023-08-11T21:42:28.523Z,85.40
2023-08-11T21:44:56.382Z,85.49
2023-08-11T21:47:24.707Z,85.51
2023-08-11T21:49:52.684Z,85.32
2023-08-11T21:52:20.617Z,85.26
2023-08-11T21:54:48.421Z,85.38
2023-08-11T21:57:16.197Z,85.43
2023-08-11T21:59:44.090Z,85.37
2023-08-11T22:02:11.884Z,85.17
2023-08-11T22:04:42.363Z,85.22
2023-08-11T22:07:10.664Z,85.30
2023-08-11T22:09:39.606Z,85.26
2023-08-11T22:12:07.645Z,85.32
2023-08-11T22:14:35.556Z,85.36
2023-08-11T22:17:04.025Z,85.40
2023-08-11T22:19:32.399Z,85.40
2023-08-11T22:22:00.338Z,85.47
2023-08-11T22:24:40.633Z,85.45
2023-08-11T22:27:11.229Z,85.43
2023-08-11T22:29:39.628Z,85.49
2023-08-11T22:32:07.612Z,85.47
2023-08-11T22:34:35.687Z,85.29
2023-08-11T22:37:04.205Z,85.25
2023-08-11T22:39:32.234Z,85.21
2023-08-11T22:42:00.174Z,85.33
2023-08-11T22:44:27.902Z,85.19
2023-08-11T22:46:55.595Z,85.28
2023-08-11T22:49:23.607Z,85.17
2023-08-11T22:51:51.389Z,85.18
2023-08-11T22:54:19.196Z,85.48
2023-08-11T22:56:46.975Z,85.72
2023-08-11T22:59:14.806Z,85.62
2023-08-11T23:01:42.833Z,85.61
2023-08-11T23:04:10.587Z,85.66
2023-08-11T23:06:38.528Z,85.71
2023-08-11T23:09:07.588Z,85.67
2023-08-11T23:11:35.702Z,85.54
2023-08-11T23:14:04.519Z,85.50
2023-08-11T23:16:35.040Z,85.64
2023-08-11T23:19:02.876Z,85.67
2023-08-11T23:21:31.531Z,85.64
2023-08-11T23:23:59.845Z,85.59
2023-08-11T23:26:27.612Z,85.45
2023-08-11T23:28:55.383Z,85.55
2023-08-11T23:31:23.219Z,85.59
2023-08-11T23:33:51.055Z,85.68
2023-08-11T23:36:18.866Z,85.62
2023-08-11T23:38:46.898Z,85.64
2023-08-11T23:41:14.700Z,85.69
2023-08-11T23:43:42.569Z,85.72
2023-08-11T23:46:15.072Z,85.66
2023-08-11T23:48:43.282Z,85.72
2023-08-11T23:51:11.129Z,85.71
2023-08-11T23:53:38.914Z,85.79
2023-08-11T23:56:06.754Z,85.80
2023-08-11T23:58:34.800Z,85.84
